sensor_id;sensor_type;location;lat;lon;timestamp;pressure;altitude;pressure_sealevel;temperature;humidity
65127;BME280;51927;49.080;19.652;2023-09-19T00:00:06;94080.09;;;25.96;50.24
65127;BME280;51927;49.080;19.652;2023-09-19T00:00:12;94084.34;;;25.97;50.06
65127;BME280;51927;49.080;19.652;2023-09-19T00:00:18;94089.72;;;25.97;50.11
65127;BME280;51927;49.080;19.652;2023-09-19T00:00:24;94086.25;;;25.96;50.22
65127;BME280;51927;49.080;19.652;2023-09-19T00:00:32;94083.56;;;25.96;50.12
65127;BME280;51927;49.080;19.652;2023-09-19T00:00:39;94080.88;;;25.96;50.22
65127;BME280;51927;49.080;19.652;2023-09-19T00:00:46;94083.56;;;25.96;49.96
65127;BME280;51927;49.080;19.652;2023-09-19T00:00:55;94084.34;;;25.97;49.86
65127;BME280;51927;49.080;19.652;2023-09-19T00:01:00;94084.34;;;25.97;50.23
65127;BME280;51927;49.080;19.652;2023-09-19T00:01:06;94081.66;;;25.97;50.10
65127;BME280;51927;49.080;19.652;2023-09-19T00:01:17;94089.72;;;25.97;50.06
65127;BME280;51927;49.080;19.652;2023-09-19T00:01:25;94085.09;;;25.97;50.14
65127;BME280;51927;49.080;19.652;2023-09-19T00:01:30;94083.56;;;25.96;50.24
65127;BME280;51927;49.080;19.652;2023-09-19T00:01:35;94084.34;;;25.97;50.09
65127;BME280;51927;49.080;19.652;2023-09-19T00:01:40;94081.66;;;25.97;50.20
65127;BME280;51927;49.080;19.652;2023-09-19T00:01:46;94080.09;;;25.96;50.21
65127;BME280;51927;49.080;19.652;2023-09-19T00:01:51;94080.88;;;25.96;50.04
65127;BME280;51927;49.080;19.652;2023-09-19T00:01:57;94078.19;;;25.96;50.17
65127;BME280;51927;49.080;19.652;2023-09-19T00:02:02;94084.34;;;25.97;50.16
65127;BME280;51927;49.080;19.652;2023-09-19T00:02:11;94084.34;;;25.97;50.12
65127;BME280;51927;49.080;19.652;2023-09-19T00:02:17;94085.91;;;25.98;50.10
65127;BME280;51927;49.080;19.652;2023-09-19T00:02:22;94078.19;;;25.96;50.41
65127;BME280;51927;49.080;19.652;2023-09-19T00:02:27;94078.19;;;25.96;50.02
65127;BME280;51927;49.080;19.652;2023-09-19T00:02:34;94083.56;;;25.96;50.11
65127;BME280;51927;49.080;19.652;2023-09-19T00:02:41;94079.75;;;25.97;50.03
65127;BME280;51927;49.080;19.652;2023-09-19T00:02:56;94084.34;;;25.97;50.05
65127;BME280;51927;49.080;19.652;2023-09-19T00:03:04;94080.53;;;25.98;49.95
65127;BME280;51927;49.080;19.652;2023-09-19T00:03:10;94079.75;;;25.97;50.08
65127;BME280;51927;49.080;19.652;2023-09-19T00:03:16;94080.53;;;25.98;50.07
65127;BME280;51927;49.080;19.652;2023-09-19T00:03:21;94074.38;;;25.97;50.08
65127;BME280;51927;49.080;19.652;2023-09-19T00:03:27;94069.81;;;25.98;50.09
65127;BME280;51927;49.080;19.652;2023-09-19T00:03:33;94075.19;;;25.98;50.14
65127;BME280;51927;49.080;19.652;2023-09-19T00:03:38;94077.06;;;25.97;50.02
65127;BME280;51927;49.080;19.652;2023-09-19T00:03:43;94076.28;;;25.97;49.95
65127;BME280;51927;49.080;19.652;2023-09-19T00:03:49;94072.50;;;25.98;49.94
65127;BME280;51927;49.080;19.652;2023-09-19T00:03:54;94071.69;;;25.97;49.94
65127;BME280;51927;49.080;19.652;2023-09-19T00:03:59;94073.59;;;25.97;49.90
65127;BME280;51927;49.080;19.652;2023-09-19T00:04:05;94077.06;;;25.97;50.08
65127;BME280;51927;49.080;19.652;2023-09-19T00:04:14;94069.81;;;25.98;50.11
65127;BME280;51927;49.080;19.652;2023-09-19T00:04:20;94069.00;;;25.97;50.03
65127;BME280;51927;49.080;19.652;2023-09-19T00:04:30;94069.81;;;25.98;50.16
65127;BME280;51927;49.080;19.652;2023-09-19T00:04:35;94069.34;;;25.96;50.10
65127;BME280;51927;49.080;19.652;2023-09-19T00:04:44;94067.47;;;25.96;50.10
65127;BME280;51927;49.080;19.652;2023-09-19T00:04:49;94070.16;;;25.96;50.18
65127;BME280;51927;49.080;19.652;2023-09-19T00:04:55;94070.94;;;25.97;50.04
65127;BME280;51927;49.080;19.652;2023-09-19T00:05:00;94067.47;;;25.96;50.13
65127;BME280;51927;49.080;19.652;2023-09-19T00:05:09;94064.44;;;25.98;50.09
65127;BME280;51927;49.080;19.652;2023-09-19T00:05:14;94073.59;;;25.97;50.06
65127;BME280;51927;49.080;19.652;2023-09-19T00:05:20;94065.56;;;25.97;50.01
65127;BME280;51927;49.080;19.652;2023-09-19T00:05:29;94069.00;;;25.97;49.90
65127;BME280;51927;49.080;19.652;2023-09-19T00:05:35;94069.00;;;25.97;50.04
65127;BME280;51927;49.080;19.652;2023-09-19T00:05:40;94069.81;;;25.98;50.05
65127;BME280;51927;49.080;19.652;2023-09-19T00:05:49;94062.88;;;25.97;50.10
65127;BME280;51927;49.080;19.652;2023-09-19T00:05:55;94070.16;;;25.96;50.09
65127;BME280;51927;49.080;19.652;2023-09-19T00:06:03;94068.25;;;25.97;50.02
65127;BME280;51927;49.080;19.652;2023-09-19T00:06:09;94075.50;;;25.96;50.12
65127;BME280;51927;49.080;19.652;2023-09-19T00:06:15;94072.50;;;25.98;50.24
65127;BME280;51927;49.080;19.652;2023-09-19T00:06:20;94068.25;;;25.97;50.06
65127;BME280;51927;49.080;19.652;2023-09-19T00:06:28;94063.66;;;25.97;50.11
65127;BME280;51927;49.080;19.652;2023-09-19T00:06:36;94073.59;;;25.97;50.17
65127;BME280;51927;49.080;19.652;2023-09-19T00:06:41;94067.47;;;25.96;50.03
65127;BME280;51927;49.080;19.652;2023-09-19T00:06:47;94064.78;;;25.96;50.05
65127;BME280;51927;49.080;19.652;2023-09-19T00:06:53;94068.25;;;25.97;50.11
65127;BME280;51927;49.080;19.652;2023-09-19T00:06:59;94062.88;;;25.97;49.95
65127;BME280;51927;49.080;19.652;2023-09-19T00:07:04;94070.94;;;25.97;50.06
65127;BME280;51927;49.080;19.652;2023-09-19T00:07:09;94067.47;;;25.96;50.17
65127;BME280;51927;49.080;19.652;2023-09-19T00:07:14;94064.78;;;25.96;49.97
65127;BME280;51927;49.080;19.652;2023-09-19T00:07:21;94068.25;;;25.97;50.12
65127;BME280;51927;49.080;19.652;2023-09-19T00:07:26;94067.47;;;25.96;50.19
65127;BME280;51927;49.080;19.652;2023-09-19T00:07:33;94064.00;;;25.96;50.10
65127;BME280;51927;49.080;19.652;2023-09-19T00:07:38;94062.88;;;25.97;50.10
65127;BME280;51927;49.080;19.652;2023-09-19T00:07:44;94068.25;;;25.97;50.14
65127;BME280;51927;49.080;19.652;2023-09-19T00:07:50;94062.88;;;25.97;50.11
65127;BME280;51927;49.080;19.652;2023-09-19T00:07:58;94073.59;;;25.97;50.11
65127;BME280;51927;49.080;19.652;2023-09-19T00:08:04;94066.31;;;25.97;50.08
65127;BME280;51927;49.080;19.652;2023-09-19T00:08:09;94068.25;;;25.97;50.01
65127;BME280;51927;49.080;19.652;2023-09-19T00:08:15;94070.94;;;25.97;50.22
65127;BME280;51927;49.080;19.652;2023-09-19T00:08:20;94067.47;;;25.96;49.95
65127;BME280;51927;49.080;19.652;2023-09-19T00:08:29;94068.25;;;25.97;50.04
65127;BME280;51927;49.080;19.652;2023-09-19T00:08:35;94074.38;;;25.97;50.15
65127;BME280;51927;49.080;19.652;2023-09-19T00:08:40;94074.38;;;25.97;49.99
65127;BME280;51927;49.080;19.652;2023-09-19T00:08:45;94074.38;;;25.97;49.99
65127;BME280;51927;49.080;19.652;2023-09-19T00:08:50;94074.38;;;25.97;50.16
65127;BME280;51927;49.080;19.652;2023-09-19T00:08:55;94069.00;;;25.97;50.07
65127;BME280;51927;49.080;19.652;2023-09-19T00:09:01;94078.97;;;25.97;50.16
65127;BME280;51927;49.080;19.652;2023-09-19T00:09:07;94073.59;;;25.97;50.03
65127;BME280;51927;49.080;19.652;2023-09-19T00:09:15;94069.34;;;25.96;50.06
65127;BME280;51927;49.080;19.652;2023-09-19T00:09:20;94070.94;;;25.97;50.11
65127;BME280;51927;49.080;19.652;2023-09-19T00:09:26;94062.09;;;25.96;50.13
65127;BME280;51927;49.080;19.652;2023-09-19T00:09:32;94072.03;;;25.96;50.23
65127;BME280;51927;49.080;19.652;2023-09-19T00:09:42;94070.16;;;25.96;49.89
65127;BME280;51927;49.080;19.652;2023-09-19T00:09:49;94068.25;;;25.97;50.01
65127;BME280;51927;49.080;19.652;2023-09-19T00:09:54;94067.47;;;25.96;50.21
65127;BME280;51927;49.080;19.652;2023-09-19T00:10:00;94070.16;;;25.96;50.10
65127;BME280;51927;49.080;19.652;2023-09-19T00:10:05;94078.97;;;25.97;50.18
65127;BME280;51927;49.080;19.652;2023-09-19T00:10:10;94069.81;;;25.98;50.40
65127;BME280;51927;49.080;19.652;2023-09-19T00:10:16;94062.09;;;25.96;50.02
65127;BME280;51927;49.080;19.652;2023-09-19T00:10:22;94070.94;;;25.97;50.03
65127;BME280;51927;49.080;19.652;2023-09-19T00:10:29;94069.00;;;25.97;50.02
65127;BME280;51927;49.080;19.652;2023-09-19T00:10:39;94074.38;;;25.97;49.86
65127;BME280;51927;49.080;19.652;2023-09-19T00:10:46;94073.59;;;25.97;50.16
65127;BME280;51927;49.080;19.652;2023-09-19T00:10:51;94061.31;;;25.96;50.05
65127;BME280;51927;49.080;19.652;2023-09-19T00:10:58;94066.66;;;25.96;49.98
65127;BME280;51927;49.080;19.652;2023-09-19T00:11:10;94064.00;;;25.96;49.93
65127;BME280;51927;49.080;19.652;2023-09-19T00:11:16;94068.56;;;25.95;50.03
65127;BME280;51927;49.080;19.652;2023-09-19T00:11:21;94067.47;;;25.96;50.08
65127;BME280;51927;49.080;19.652;2023-09-19T00:11:26;94067.47;;;25.96;49.96
65127;BME280;51927;49.080;19.652;2023-09-19T00:11:31;94070.94;;;25.97;50.17
65127;BME280;51927;49.080;19.652;2023-09-19T00:11:37;94068.25;;;25.97;50.04
65127;BME280;51927;49.080;19.652;2023-09-19T00:11:43;94069.00;;;25.97;50.09
65127;BME280;51927;49.080;19.652;2023-09-19T00:11:49;94068.25;;;25.97;50.09
65127;BME280;51927;49.080;19.652;2023-09-19T00:11:54;94069.00;;;25.97;49.97
65127;BME280;51927;49.080;19.652;2023-09-19T00:11:59;94073.59;;;25.97;50.09
65127;BME280;51927;49.080;19.652;2023-09-19T00:12:05;94065.56;;;25.97;50.04
65127;BME280;51927;49.080;19.652;2023-09-19T00:12:10;94068.25;;;25.97;50.11
65127;BME280;51927;49.080;19.652;2023-09-19T00:12:18;94064.78;;;25.96;50.19
65127;BME280;51927;49.080;19.652;2023-09-19T00:12:23;94066.66;;;25.96;50.24
65127;BME280;51927;49.080;19.652;2023-09-19T00:12:28;94074.38;;;25.97;50.20
65127;BME280;51927;49.080;19.652;2023-09-19T00:12:34;94068.25;;;25.97;50.20
65127;BME280;51927;49.080;19.652;2023-09-19T00:12:42;94066.66;;;25.96;50.18
65127;BME280;51927;49.080;19.652;2023-09-19T00:12:47;94062.88;;;25.97;50.17
65127;BME280;51927;49.080;19.652;2023-09-19T00:12:53;94060.19;;;25.97;50.24
65127;BME280;51927;49.080;19.652;2023-09-19T00:13:03;94060.19;;;25.97;50.20
65127;BME280;51927;49.080;19.652;2023-09-19T00:13:12;94063.66;;;25.97;49.82
65127;BME280;51927;49.080;19.652;2023-09-19T00:13:20;94062.88;;;25.97;50.08
65127;BME280;51927;49.080;19.652;2023-09-19T00:13:25;94062.88;;;25.97;50.20
65127;BME280;51927;49.080;19.652;2023-09-19T00:13:31;94060.19;;;25.97;50.09
65127;BME280;51927;49.080;19.652;2023-09-19T00:13:36;94057.81;;;25.95;50.05
65127;BME280;51927;49.080;19.652;2023-09-19T00:13:41;94064.78;;;25.96;50.25
65127;BME280;51927;49.080;19.652;2023-09-19T00:13:48;94062.88;;;25.97;50.27
65127;BME280;51927;49.080;19.652;2023-09-19T00:13:55;94064.00;;;25.96;50.23
65127;BME280;51927;49.080;19.652;2023-09-19T00:14:00;94064.78;;;25.96;50.12
65127;BME280;51927;49.080;19.652;2023-09-19T00:14:05;94059.41;;;25.96;50.33
65127;BME280;51927;49.080;19.652;2023-09-19T00:14:12;94064.00;;;25.96;50.15
65127;BME280;51927;49.080;19.652;2023-09-19T00:14:19;94055.13;;;25.95;50.18
65127;BME280;51927;49.080;19.652;2023-09-19T00:14:25;94062.09;;;25.96;50.29
65127;BME280;51927;49.080;19.652;2023-09-19T00:14:30;94064.00;;;25.96;50.18
65127;BME280;51927;49.080;19.652;2023-09-19T00:14:39;94058.63;;;25.96;50.15
65127;BME280;51927;49.080;19.652;2023-09-19T00:14:45;94062.09;;;25.96;50.17
65127;BME280;51927;49.080;19.652;2023-09-19T00:14:50;94064.78;;;25.96;50.23
65127;BME280;51927;49.080;19.652;2023-09-19T00:14:56;94064.00;;;25.96;50.16
65127;BME280;51927;49.080;19.652;2023-09-19T00:15:01;94058.63;;;25.96;50.29
65127;BME280;51927;49.080;19.652;2023-09-19T00:15:10;94057.50;;;25.97;50.25
65127;BME280;51927;49.080;19.652;2023-09-19T00:15:16;94059.41;;;25.96;50.24
65127;BME280;51927;49.080;19.652;2023-09-19T00:15:22;94058.63;;;25.96;50.13
65127;BME280;51927;49.080;19.652;2023-09-19T00:15:28;94062.09;;;25.96;50.21
65127;BME280;51927;49.080;19.652;2023-09-19T00:15:37;94051.38;;;25.96;50.24
65127;BME280;51927;49.080;19.652;2023-09-19T00:15:43;94057.50;;;25.97;50.34
65127;BME280;51927;49.080;19.652;2023-09-19T00:15:53;94065.56;;;25.97;50.28
65127;BME280;51927;49.080;19.652;2023-09-19T00:16:00;94060.97;;;25.97;50.16
65127;BME280;51927;49.080;19.652;2023-09-19T00:16:09;94055.59;;;25.97;50.28
65127;BME280;51927;49.080;19.652;2023-09-19T00:16:17;94056.75;;;25.96;50.25
65127;BME280;51927;49.080;19.652;2023-09-19T00:16:24;94055.59;;;25.97;50.07
65127;BME280;51927;49.080;19.652;2023-09-19T00:16:30;94058.63;;;25.96;50.17
65127;BME280;51927;49.080;19.652;2023-09-19T00:16:35;94054.81;;;25.97;50.36
65127;BME280;51927;49.080;19.652;2023-09-19T00:16:41;94060.19;;;25.97;50.12
65127;BME280;51927;49.080;19.652;2023-09-19T00:16:46;94060.19;;;25.97;50.15
65127;BME280;51927;49.080;19.652;2023-09-19T00:16:51;94049.47;;;25.97;50.17
65127;BME280;51927;49.080;19.652;2023-09-19T00:16:56;94051.81;;;25.98;50.17
65127;BME280;51927;49.080;19.652;2023-09-19T00:17:02;94052.16;;;25.97;50.14
65127;BME280;51927;49.080;19.652;2023-09-19T00:17:13;94051.38;;;25.96;50.31
65127;BME280;51927;49.080;19.652;2023-09-19T00:17:18;94049.47;;;25.97;50.20
65127;BME280;51927;49.080;19.652;2023-09-19T00:17:23;94053.25;;;25.96;50.10
65127;BME280;51927;49.080;19.652;2023-09-19T00:17:29;94055.94;;;25.96;50.18
65127;BME280;51927;49.080;19.652;2023-09-19T00:17:36;94054.06;;;25.96;50.28
65127;BME280;51927;49.080;19.652;2023-09-19T00:17:42;94052.16;;;25.97;50.15
65127;BME280;51927;49.080;19.652;2023-09-19T00:17:48;94049.47;;;25.97;50.22
65127;BME280;51927;49.080;19.652;2023-09-19T00:17:54;94050.56;;;25.96;50.10
65127;BME280;51927;49.080;19.652;2023-09-19T00:17:59;94048.69;;;25.96;50.10
65127;BME280;51927;49.080;19.652;2023-09-19T00:18:05;94049.47;;;25.97;50.04
65127;BME280;51927;49.080;19.652;2023-09-19T00:18:14;94051.03;;;25.98;50.22
65127;BME280;51927;49.080;19.652;2023-09-19T00:18:20;94049.47;;;25.97;50.16
65127;BME280;51927;49.080;19.652;2023-09-19T00:18:26;94048.69;;;25.96;50.34
65127;BME280;51927;49.080;19.652;2023-09-19T00:18:37;94050.22;;;25.97;50.34
65127;BME280;51927;49.080;19.652;2023-09-19T00:18:42;94052.16;;;25.97;50.24
65127;BME280;51927;49.080;19.652;2023-09-19T00:18:48;94051.38;;;25.96;50.17
65127;BME280;51927;49.080;19.652;2023-09-19T00:18:54;94053.25;;;25.96;50.11
65127;BME280;51927;49.080;19.652;2023-09-19T00:19:00;94054.81;;;25.97;50.23
65127;BME280;51927;49.080;19.652;2023-09-19T00:19:14;94051.38;;;25.96;50.27
65127;BME280;51927;49.080;19.652;2023-09-19T00:19:21;94057.50;;;25.97;50.17
65127;BME280;51927;49.080;19.652;2023-09-19T00:19:26;94052.16;;;25.97;50.36
65127;BME280;51927;49.080;19.652;2023-09-19T00:19:31;94052.16;;;25.97;50.33
65127;BME280;51927;49.080;19.652;2023-09-19T00:19:37;94046.00;;;25.96;50.18
65127;BME280;51927;49.080;19.652;2023-09-19T00:19:42;94045.22;;;25.96;50.28
65127;BME280;51927;49.080;19.652;2023-09-19T00:19:48;94053.25;;;25.96;50.19
65127;BME280;51927;49.080;19.652;2023-09-19T00:19:53;94047.88;;;25.96;50.22
65127;BME280;51927;49.080;19.652;2023-09-19T00:19:58;94050.56;;;25.96;50.21
65127;BME280;51927;49.080;19.652;2023-09-19T00:20:05;94045.22;;;25.96;50.05
65127;BME280;51927;49.080;19.652;2023-09-19T00:20:16;94046.00;;;25.96;50.24
65127;BME280;51927;49.080;19.652;2023-09-19T00:20:22;94045.22;;;25.96;50.13
65127;BME280;51927;49.080;19.652;2023-09-19T00:20:28;94048.69;;;25.96;50.11
65127;BME280;51927;49.080;19.652;2023-09-19T00:20:37;94045.22;;;25.96;50.13
65127;BME280;51927;49.080;19.652;2023-09-19T00:20:43;94043.31;;;25.96;50.18
65127;BME280;51927;49.080;19.652;2023-09-19T00:20:52;94050.56;;;25.96;50.24
65127;BME280;51927;49.080;19.652;2023-09-19T00:20:58;94053.72;;;25.98;50.16
65127;BME280;51927;49.080;19.652;2023-09-19T00:21:03;94048.69;;;25.96;50.15
65127;BME280;51927;49.080;19.652;2023-09-19T00:21:10;94049.47;;;25.97;50.18
65127;BME280;51927;49.080;19.652;2023-09-19T00:21:15;94046.78;;;25.97;50.17
65127;BME280;51927;49.080;19.652;2023-09-19T00:21:20;94043.31;;;25.96;50.27
65127;BME280;51927;49.080;19.652;2023-09-19T00:21:25;94046.78;;;25.97;50.30
65127;BME280;51927;49.080;19.652;2023-09-19T00:21:31;94051.38;;;25.96;50.10
65127;BME280;51927;49.080;19.652;2023-09-19T00:21:36;94049.47;;;25.97;50.27
65127;BME280;51927;49.080;19.652;2023-09-19T00:21:42;94047.88;;;25.96;50.19
65127;BME280;51927;49.080;19.652;2023-09-19T00:21:48;94045.22;;;25.96;50.15
65127;BME280;51927;49.080;19.652;2023-09-19T00:21:53;94042.53;;;25.96;50.16
65127;BME280;51927;49.080;19.652;2023-09-19T00:21:58;94047.88;;;25.96;50.21
65127;BME280;51927;49.080;19.652;2023-09-19T00:22:03;94046.78;;;25.97;50.21
65127;BME280;51927;49.080;19.652;2023-09-19T00:22:09;94046.00;;;25.96;50.16
65127;BME280;51927;49.080;19.652;2023-09-19T00:22:14;94045.22;;;25.96;50.25
65127;BME280;51927;49.080;19.652;2023-09-19T00:22:21;94048.69;;;25.96;50.33
65127;BME280;51927;49.080;19.652;2023-09-19T00:22:26;94048.69;;;25.96;50.29
65127;BME280;51927;49.080;19.652;2023-09-19T00:22:31;94046.00;;;25.96;50.35
65127;BME280;51927;49.080;19.652;2023-09-19T00:22:39;94046.78;;;25.97;50.11
65127;BME280;51927;49.080;19.652;2023-09-19T00:22:44;94052.16;;;25.97;50.18
65127;BME280;51927;49.080;19.652;2023-09-19T00:22:50;94042.53;;;25.96;50.16
65127;BME280;51927;49.080;19.652;2023-09-19T00:22:58;94040.66;;;25.96;50.28
65127;BME280;51927;49.080;19.652;2023-09-19T00:23:04;94046.00;;;25.96;50.15
65127;BME280;51927;49.080;19.652;2023-09-19T00:23:09;94049.47;;;25.97;50.52
65127;BME280;51927;49.080;19.652;2023-09-19T00:23:14;94046.78;;;25.97;50.06
65127;BME280;51927;49.080;19.652;2023-09-19T00:23:20;94046.00;;;25.96;50.18
65127;BME280;51927;49.080;19.652;2023-09-19T00:23:25;94045.22;;;25.96;50.22
65127;BME280;51927;49.080;19.652;2023-09-19T00:23:30;94046.00;;;25.96;50.13
65127;BME280;51927;49.080;19.652;2023-09-19T00:23:36;94040.66;;;25.96;50.13
65127;BME280;51927;49.080;19.652;2023-09-19T00:23:42;94046.00;;;25.96;50.27
65127;BME280;51927;49.080;19.652;2023-09-19T00:23:47;94048.69;;;25.96;50.25
65127;BME280;51927;49.080;19.652;2023-09-19T00:23:52;94047.88;;;25.96;50.12
65127;BME280;51927;49.080;19.652;2023-09-19T00:23:57;94051.38;;;25.96;50.42
65127;BME280;51927;49.080;19.652;2023-09-19T00:24:03;94039.84;;;25.96;50.26
65127;BME280;51927;49.080;19.652;2023-09-19T00:24:08;94047.88;;;25.96;50.26
65127;BME280;51927;49.080;19.652;2023-09-19T00:24:14;94044.09;;;25.97;50.06
65127;BME280;51927;49.080;19.652;2023-09-19T00:24:19;94050.56;;;25.96;50.10
65127;BME280;51927;49.080;19.652;2023-09-19T00:24:24;94041.41;;;25.97;50.18
65127;BME280;51927;49.080;19.652;2023-09-19T00:24:29;94045.66;;;25.98;50.21
65127;BME280;51927;49.080;19.652;2023-09-19T00:24:35;94047.56;;;25.97;50.17
65127;BME280;51927;49.080;19.652;2023-09-19T00:24:41;94045.22;;;25.96;50.19
65127;BME280;51927;49.080;19.652;2023-09-19T00:24:46;94047.56;;;25.97;50.04
65127;BME280;51927;49.080;19.652;2023-09-19T00:24:51;94041.41;;;25.97;50.09
65127;BME280;51927;49.080;19.652;2023-09-19T00:24:57;94044.09;;;25.97;50.30
65127;BME280;51927;49.080;19.652;2023-09-19T00:25:02;94052.16;;;25.97;50.31
65127;BME280;51927;49.080;19.652;2023-09-19T00:25:07;94046.78;;;25.97;50.14
65127;BME280;51927;49.080;19.652;2023-09-19T00:25:13;94050.22;;;25.97;50.21
65127;BME280;51927;49.080;19.652;2023-09-19T00:25:20;94046.78;;;25.97;50.20
65127;BME280;51927;49.080;19.652;2023-09-19T00:25:25;94052.91;;;25.97;50.20
65127;BME280;51927;49.080;19.652;2023-09-19T00:25:31;94046.78;;;25.97;49.95
65127;BME280;51927;49.080;19.652;2023-09-19T00:25:40;94052.16;;;25.97;50.18
65127;BME280;51927;49.080;19.652;2023-09-19T00:25:47;94052.91;;;25.97;50.17
65127;BME280;51927;49.080;19.652;2023-09-19T00:25:52;94050.56;;;25.96;50.24
65127;BME280;51927;49.080;19.652;2023-09-19T00:26:00;94048.69;;;25.96;50.25
65127;BME280;51927;49.080;19.652;2023-09-19T00:26:05;94051.38;;;25.96;50.05
65127;BME280;51927;49.080;19.652;2023-09-19T00:26:11;94048.69;;;25.96;50.13
65127;BME280;51927;49.080;19.652;2023-09-19T00:26:17;94051.03;;;25.98;50.22
65127;BME280;51927;49.080;19.652;2023-09-19T00:26:23;94054.81;;;25.97;50.20
65127;BME280;51927;49.080;19.652;2023-09-19T00:26:28;94054.81;;;25.97;50.22
65127;BME280;51927;49.080;19.652;2023-09-19T00:26:35;94050.22;;;25.97;50.32
65127;BME280;51927;49.080;19.652;2023-09-19T00:26:41;94057.50;;;25.97;50.29
65127;BME280;51927;49.080;19.652;2023-09-19T00:26:46;94054.06;;;25.96;50.11
65127;BME280;51927;49.080;19.652;2023-09-19T00:26:51;94050.22;;;25.97;50.08
65127;BME280;51927;49.080;19.652;2023-09-19T00:26:56;94055.59;;;25.97;50.27
65127;BME280;51927;49.080;19.652;2023-09-19T00:27:04;94052.16;;;25.97;50.22
65127;BME280;51927;49.080;19.652;2023-09-19T00:27:10;94052.16;;;25.97;50.24
65127;BME280;51927;49.080;19.652;2023-09-19T00:27:16;94052.16;;;25.97;50.31
65127;BME280;51927;49.080;19.652;2023-09-19T00:27:21;94054.06;;;25.96;50.04
65127;BME280;51927;49.080;19.652;2023-09-19T00:27:27;94051.38;;;25.96;50.23
65127;BME280;51927;49.080;19.652;2023-09-19T00:27:33;94052.16;;;25.97;50.24
65127;BME280;51927;49.080;19.652;2023-09-19T00:27:46;94049.47;;;25.97;50.17
65127;BME280;51927;49.080;19.652;2023-09-19T00:27:52;94058.63;;;25.96;50.07
65127;BME280;51927;49.080;19.652;2023-09-19T00:27:59;94056.75;;;25.96;50.19
65127;BME280;51927;49.080;19.652;2023-09-19T00:28:04;94060.19;;;25.97;50.21
65127;BME280;51927;49.080;19.652;2023-09-19T00:28:10;94052.16;;;25.97;50.21
65127;BME280;51927;49.080;19.652;2023-09-19T00:28:16;94054.81;;;25.97;50.30
65127;BME280;51927;49.080;19.652;2023-09-19T00:28:23;94059.41;;;25.96;50.48
65127;BME280;51927;49.080;19.652;2023-09-19T00:28:28;94057.50;;;25.97;50.06
65127;BME280;51927;49.080;19.652;2023-09-19T00:28:35;94061.31;;;25.96;50.10
65127;BME280;51927;49.080;19.652;2023-09-19T00:28:40;94055.94;;;25.96;50.15
65127;BME280;51927;49.080;19.652;2023-09-19T00:28:45;94062.09;;;25.96;50.08
65127;BME280;51927;49.080;19.652;2023-09-19T00:28:53;94057.50;;;25.97;50.33
65127;BME280;51927;49.080;19.652;2023-09-19T00:28:59;94058.63;;;25.96;50.32
65127;BME280;51927;49.080;19.652;2023-09-19T00:29:09;94059.41;;;25.96;50.11
65127;BME280;51927;49.080;19.652;2023-09-19T00:29:15;94049.78;;;25.95;50.26
65127;BME280;51927;49.080;19.652;2023-09-19T00:29:21;94054.81;;;25.97;50.28
65127;BME280;51927;49.080;19.652;2023-09-19T00:29:28;94058.63;;;25.96;50.21
65127;BME280;51927;49.080;19.652;2023-09-19T00:29:34;94053.25;;;25.96;50.18
65127;BME280;51927;49.080;19.652;2023-09-19T00:29:39;94059.41;;;25.96;50.19
65127;BME280;51927;49.080;19.652;2023-09-19T00:29:44;94055.94;;;25.96;50.06
65127;BME280;51927;49.080;19.652;2023-09-19T00:29:49;94061.31;;;25.96;50.11
65127;BME280;51927;49.080;19.652;2023-09-19T00:29:54;94050.56;;;25.96;50.18
65127;BME280;51927;49.080;19.652;2023-09-19T00:30:01;94061.31;;;25.96;50.23
65127;BME280;51927;49.080;19.652;2023-09-19T00:30:08;94058.63;;;25.96;50.18
65127;BME280;51927;49.080;19.652;2023-09-19T00:30:18;94058.63;;;25.96;50.12
65127;BME280;51927;49.080;19.652;2023-09-19T00:30:26;94064.78;;;25.96;50.28
65127;BME280;51927;49.080;19.652;2023-09-19T00:30:31;94056.75;;;25.96;50.17
65127;BME280;51927;49.080;19.652;2023-09-19T00:30:38;94066.66;;;25.96;50.21
65127;BME280;51927;49.080;19.652;2023-09-19T00:30:43;94057.81;;;25.95;50.22
65127;BME280;51927;49.080;19.652;2023-09-19T00:30:49;94057.81;;;25.95;50.04
65127;BME280;51927;49.080;19.652;2023-09-19T00:30:57;94057.81;;;25.95;50.09
65127;BME280;51927;49.080;19.652;2023-09-19T00:31:07;94059.72;;;25.95;50.12
65127;BME280;51927;49.080;19.652;2023-09-19T00:31:13;94064.00;;;25.96;50.22
65127;BME280;51927;49.080;19.652;2023-09-19T00:31:18;94059.72;;;25.95;50.07
65127;BME280;51927;49.080;19.652;2023-09-19T00:31:24;94062.41;;;25.95;50.06
65127;BME280;51927;49.080;19.652;2023-09-19T00:31:30;94061.31;;;25.96;50.15
65127;BME280;51927;49.080;19.652;2023-09-19T00:31:35;94055.94;;;25.96;50.29
65127;BME280;51927;49.080;19.652;2023-09-19T00:31:45;94055.94;;;25.96;50.07
65127;BME280;51927;49.080;19.652;2023-09-19T00:31:50;94056.75;;;25.96;50.24
65127;BME280;51927;49.080;19.652;2023-09-19T00:31:56;94057.50;;;25.97;50.23
65127;BME280;51927;49.080;19.652;2023-09-19T00:32:04;94058.63;;;25.96;50.22
65127;BME280;51927;49.080;19.652;2023-09-19T00:32:10;94062.09;;;25.96;50.27
65127;BME280;51927;49.080;19.652;2023-09-19T00:32:15;94056.75;;;25.96;50.24
65127;BME280;51927;49.080;19.652;2023-09-19T00:32:20;94061.31;;;25.96;50.30
65127;BME280;51927;49.080;19.652;2023-09-19T00:32:26;94062.09;;;25.96;50.12
65127;BME280;51927;49.080;19.652;2023-09-19T00:32:37;94060.19;;;25.97;49.92
65127;BME280;51927;49.080;19.652;2023-09-19T00:32:42;94057.50;;;25.97;50.17
65127;BME280;51927;49.080;19.652;2023-09-19T00:32:48;94062.09;;;25.96;50.15
65127;BME280;51927;49.080;19.652;2023-09-19T00:32:53;94058.63;;;25.96;50.13
65127;BME280;51927;49.080;19.652;2023-09-19T00:32:59;94055.94;;;25.96;50.07